Time;durP1;ratioP1;P1;durP2;ratioP2;P2;SDS_P1;SDS_P2;PMS_P1;PMS_P2;Temp;Humidity;BMP_temperature;BMP_pressure;BME280_temperature;BME280_humidity;BME280_pressure;Samples;Min_cycle;Max_cycle;Signal;HPM_P1;HPM_P2
2022/10/31 00:00:07;;;;;;;10.47;5.03;;;;;;;;;;5015658;28;20231;-88
2022/10/31 00:02:34;;;;;;;8.43;4.90;;;;;;;;;;5014710;28;20723;-84
2022/10/31 00:05:02;;;;;;;8.57;5.50;;;;;;;;;;5002203;28;20592;-84
2022/10/31 00:07:31;;;;;;;6.87;5.03;;;;;;;;;;5006968;28;20234;-83
2022/10/31 00:09:58;;;;;;;8.00;5.13;;;;;;;;;;5014525;28;20270;-84
2022/10/31 00:12:25;;;;;;;5.80;4.70;;;;;;;;;;4994344;28;20235;-83
2022/10/31 00:14:52;;;;;;;11.97;5.20;;;;;;;;;;4994955;28;20224;-84
2022/10/31 00:17:19;;;;;;;12.77;5.33;;;;;;;;;;4994412;28;20240;-84
2022/10/31 00:19:46;;;;;;;9.57;5.30;;;;;;;;;;4994632;28;20709;-84
2022/10/31 00:22:15;;;;;;;7.20;4.93;;;;;;;;;;4994498;28;20240;-84
2022/10/31 00:24:42;;;;;;;5.73;4.63;;;;;;;;;;4994586;28;20232;-84
2022/10/31 00:27:09;;;;;;;7.07;4.90;;;;;;;;;;4994336;28;20240;-84
2022/10/31 00:29:36;;;;;;;7.37;4.17;;;;;;;;;;4994298;28;20584;-83
2022/10/31 00:32:03;;;;;;;6.57;4.70;;;;;;;;;;4993719;28;20235;-84
2022/10/31 00:34:30;;;;;;;8.57;4.40;;;;;;;;;;4994670;28;20228;-84
2022/10/31 00:36:57;;;;;;;5.70;4.83;;;;;;;;;;5009354;28;20242;-84
2022/10/31 00:39:26;;;;;;;7.60;5.23;;;;;;;;;;5014037;28;20231;-84
2022/10/31 00:41:53;;;;;;;5.73;4.63;;;;;;;;;;5012951;28;20737;-84
2022/10/31 00:44:20;;;;;;;6.40;5.13;;;;;;;;;;5011310;28;20228;-84
2022/10/31 00:46:47;;;;;;;10.83;5.33;;;;;;;;;;5005826;28;20239;-84
2022/10/31 00:49:14;;;;;;;8.27;4.77;;;;;;;;;;5014012;28;20203;-84
2022/10/31 00:51:41;;;;;;;8.00;4.93;;;;;;;;;;5013943;28;20591;-84
2022/10/31 00:54:08;;;;;;;6.87;4.97;;;;;;;;;;5014009;28;20215;-84
2022/10/31 00:56:37;;;;;;;8.30;4.97;;;;;;;;;;4999997;28;20235;-84
2022/10/31 00:59:04;;;;;;;7.50;5.50;;;;;;;;;;5013508;28;20239;-84
2022/10/31 01:01:31;;;;;;;9.40;5.30;;;;;;;;;;5013304;28;20215;-83
2022/10/31 01:03:58;;;;;;;7.57;4.70;;;;;;;;;;5013714;28;20207;-84
2022/10/31 01:06:25;;;;;;;8.13;5.20;;;;;;;;;;4998303;28;20204;-84
2022/10/31 01:08:52;;;;;;;6.67;5.03;;;;;;;;;;4993717;28;20688;-84
2022/10/31 01:11:20;;;;;;;9.10;5.17;;;;;;;;;;4993366;28;20664;-85
2022/10/31 01:13:49;;;;;;;11.53;5.20;;;;;;;;;;4994033;28;20207;-84
2022/10/31 01:16:17;;;;;;;6.23;4.63;;;;;;;;;;4993837;28;20228;-87
2022/10/31 01:18:45;;;;;;;6.03;4.90;;;;;;;;;;4993391;28;20241;-87
2022/10/31 01:21:13;;;;;;;11.57;4.57;;;;;;;;;;4993829;28;20212;-87
2022/10/31 01:23:40;;;;;;;6.93;4.60;;;;;;;;;;4993700;28;20230;-87
2022/10/31 01:26:09;;;;;;;8.93;4.30;;;;;;;;;;4993643;28;20228;-87
2022/10/31 01:28:37;;;;;;;6.83;4.70;;;;;;;;;;4993097;28;20239;-87
2022/10/31 01:31:07;;;;;;;10.13;5.13;;;;;;;;;;4993795;28;20212;-87
2022/10/31 01:33:34;;;;;;;7.40;5.57;;;;;;;;;;4992982;28;20232;-87
2022/10/31 01:36:01;;;;;;;8.10;5.30;;;;;;;;;;4993573;28;20335;-87
2022/10/31 01:38:28;;;;;;;9.33;4.87;;;;;;;;;;4992612;28;20236;-87
2022/10/31 01:40:55;;;;;;;8.30;5.07;;;;;;;;;;4993459;28;20231;-87
2022/10/31 01:43:22;;;;;;;5.33;4.03;;;;;;;;;;4992860;28;20235;-87
2022/10/31 01:45:52;;;;;;;8.60;4.83;;;;;;;;;;5003593;28;20219;-87
2022/10/31 01:48:21;;;;;;;9.43;5.50;;;;;;;;;;5012225;28;20711;-87
2022/10/31 01:50:50;;;;;;;10.13;5.73;;;;;;;;;;5004317;28;20203;-87
2022/10/31 01:53:17;;;;;;;11.90;5.27;;;;;;;;;;5009625;28;20254;-87
2022/10/31 01:55:45;;;;;;;8.83;5.13;;;;;;;;;;5005698;28;20227;-87
2022/10/31 01:58:14;;;;;;;8.80;5.20;;;;;;;;;;5010951;28;20239;-88
2022/10/31 02:00:44;;;;;;;5.60;4.73;;;;;;;;;;5012460;28;20235;-86
2022/10/31 02:03:12;;;;;;;11.87;5.30;;;;;;;;;;4997921;28;20238;-87
2022/10/31 02:05:40;;;;;;;10.30;5.53;;;;;;;;;;5007174;28;20227;-87
2022/10/31 02:08:09;;;;;;;5.63;4.53;;;;;;;;;;5011519;28;20239;-87
2022/10/31 02:10:37;;;;;;;7.67;5.33;;;;;;;;;;5012370;28;20192;-87
2022/10/31 02:13:06;;;;;;;6.60;4.33;;;;;;;;;;5011873;28;20246;-87
2022/10/31 02:15:33;;;;;;;5.43;4.57;;;;;;;;;;5012540;28;20223;-87
2022/10/31 02:18:01;;;;;;;6.10;5.50;;;;;;;;;;4999433;28;20234;-87
2022/10/31 02:20:31;;;;;;;7.13;5.07;;;;;;;;;;5011053;28;20227;-87
2022/10/31 02:23:25;;;;;;;8.63;4.90;;;;;;;;;;5006679;28;20234;-88
2022/10/31 02:26:13;;;;;;;5.77;4.73;;;;;;;;;;5013367;28;20233;-87
2022/10/31 02:28:52;;;;;;;9.30;5.07;;;;;;;;;;5010735;28;20690;-87
2022/10/31 02:31:27;;;;;;;7.97;5.23;;;;;;;;;;5011170;28;20214;-87
2022/10/31 02:33:57;;;;;;;6.43;4.70;;;;;;;;;;4993017;28;20207;-86
2022/10/31 02:36:27;;;;;;;6.93;5.37;;;;;;;;;;4992257;28;20196;-86
2022/10/31 02:39:04;;;;;;;9.13;4.93;;;;;;;;;;4995105;28;20208;-85
2022/10/31 02:41:34;;;;;;;6.33;5.50;;;;;;;;;;5012941;28;20211;-86
2022/10/31 02:44:04;;;;;;;5.60;4.60;;;;;;;;;;4994628;28;20691;-87
2022/10/31 02:46:36;;;;;;;8.87;4.90;;;;;;;;;;4992727;28;20562;-87
2022/10/31 02:49:05;;;;;;;11.27;5.23;;;;;;;;;;4992494;28;20649;-86
2022/10/31 02:51:32;;;;;;;5.13;4.43;;;;;;;;;;4992134;28;20243;-87
2022/10/31 02:53:59;;;;;;;7.57;4.83;;;;;;;;;;5008956;28;20211;-86
2022/10/31 02:56:27;;;;;;;7.70;5.00;;;;;;;;;;5011415;28;20200;-86
2022/10/31 02:58:55;;;;;;;7.57;4.50;;;;;;;;;;5011212;28;20199;-87
2022/10/31 03:01:40;;;;;;;6.77;4.97;;;;;;;;;;4996426;28;20673;-86
2022/10/31 03:04:33;;;;;;;6.60;4.87;;;;;;;;;;4992067;28;20216;-87
2022/10/31 03:07:03;;;;;;;11.73;4.60;;;;;;;;;;4991859;28;20243;-86
2022/10/31 03:09:35;;;;;;;8.77;5.27;;;;;;;;;;4991951;28;20205;-86
2022/10/31 03:12:06;;;;;;;6.80;5.10;;;;;;;;;;4991823;28;20885;-87
2022/10/31 03:14:37;;;;;;;9.67;5.50;;;;;;;;;;4992465;28;20234;-87
2022/10/31 03:17:07;;;;;;;7.53;5.30;;;;;;;;;;4992090;28;20240;-87
2022/10/31 03:19:37;;;;;;;7.57;5.20;;;;;;;;;;4992127;28;20208;-87
2022/10/31 03:22:07;;;;;;;6.97;5.03;;;;;;;;;;4992292;28;20244;-87
2022/10/31 03:24:37;;;;;;;6.63;5.13;;;;;;;;;;4992085;28;20232;-87
2022/10/31 03:27:07;;;;;;;5.83;4.90;;;;;;;;;;4991811;28;20236;-86
2022/10/31 03:29:36;;;;;;;7.20;5.17;;;;;;;;;;5003764;28;20198;-87
2022/10/31 03:32:04;;;;;;;7.47;5.07;;;;;;;;;;5010755;28;20239;-87
2022/10/31 03:34:32;;;;;;;8.03;4.80;;;;;;;;;;5015455;28;20242;-87
2022/10/31 03:37:02;;;;;;;6.70;4.93;;;;;;;;;;4997237;28;20243;-87
2022/10/31 03:39:29;;;;;;;7.03;4.43;;;;;;;;;;4995758;28;20232;-87
2022/10/31 03:41:58;;;;;;;5.80;4.67;;;;;;;;;;4997116;28;20231;-87
2022/10/31 03:44:25;;;;;;;6.30;5.20;;;;;;;;;;5008565;28;20244;-86
2022/10/31 03:46:53;;;;;;;8.30;5.03;;;;;;;;;;4995094;28;20236;-86
2022/10/31 03:49:20;;;;;;;6.93;4.73;;;;;;;;;;5013081;28;20223;-86
2022/10/31 03:51:49;;;;;;;6.40;4.30;;;;;;;;;;4999127;28;20227;-86
2022/10/31 03:54:25;;;;;;;10.30;4.90;;;;;;;;;;5023422;28;20234;-86
2022/10/31 03:56:54;;;;;;;5.40;4.50;;;;;;;;;;5003616;28;20719;-86
2022/10/31 03:59:23;;;;;;;10.70;4.80;;;;;;;;;;5000922;28;20220;-87
2022/10/31 04:01:52;;;;;;;7.53;5.17;;;;;;;;;;5016347;28;20241;-86
2022/10/31 04:04:20;;;;;;;5.27;4.70;;;;;;;;;;5014322;28;20224;-86
2022/10/31 04:06:48;;;;;;;5.10;4.30;;;;;;;;;;5021518;28;20738;-86
2022/10/31 04:09:16;;;;;;;5.13;4.07;;;;;;;;;;5006636;28;20200;-86
2022/10/31 04:11:47;;;;;;;7.83;4.23;;;;;;;;;;4995257;28;20316;-87
2022/10/31 04:14:14;;;;;;;7.93;4.57;;;;;;;;;;4995047;28;20207;-86
2022/10/31 04:16:42;;;;;;;11.97;5.00;;;;;;;;;;4994665;28;20248;-86
2022/10/31 04:19:10;;;;;;;5.73;4.53;;;;;;;;;;4995178;28;20204;-86
2022/10/31 04:21:37;;;;;;;5.37;4.87;;;;;;;;;;4994646;28;20236;-86
2022/10/31 04:24:04;;;;;;;8.90;4.57;;;;;;;;;;4995133;28;20208;-87
2022/10/31 04:26:31;;;;;;;9.80;5.20;;;;;;;;;;4994833;28;20236;-86
2022/10/31 04:28:59;;;;;;;7.47;4.60;;;;;;;;;;4994699;28;20215;-86
2022/10/31 04:31:26;;;;;;;9.07;4.80;;;;;;;;;;4994653;28;20212;-84
2022/10/31 04:33:54;;;;;;;6.10;5.10;;;;;;;;;;4994902;28;20212;-84
2022/10/31 04:36:21;;;;;;;6.93;4.97;;;;;;;;;;4993916;28;20723;-85
2022/10/31 04:38:48;;;;;;;7.60;5.37;;;;;;;;;;4994411;28;20208;-84
2022/10/31 04:41:15;;;;;;;10.13;5.57;;;;;;;;;;4993382;28;20225;-85
2022/10/31 04:43:42;;;;;;;5.40;4.90;;;;;;;;;;4994408;28;20216;-85
2022/10/31 04:46:10;;;;;;;8.47;6.17;;;;;;;;;;5005883;28;20227;-84
2022/10/31 04:48:37;;;;;;;6.13;4.50;;;;;;;;;;5013801;28;20242;-84
2022/10/31 04:51:04;;;;;;;8.63;5.23;;;;;;;;;;5014146;28;20203;-84
2022/10/31 04:53:32;;;;;;;11.17;6.70;;;;;;;;;;5013473;28;20609;-84
2022/10/31 04:56:00;;;;;;;7.80;5.50;;;;;;;;;;5007097;28;20735;-86
2022/10/31 04:58:27;;;;;;;11.77;5.87;;;;;;;;;;4993725;28;20239;-86
2022/10/31 05:00:54;;;;;;;6.67;5.60;;;;;;;;;;4995009;28;20228;-86
2022/10/31 05:03:23;;;;;;;6.43;5.23;;;;;;;;;;5000973;28;20236;-86
2022/10/31 05:05:50;;;;;;;8.37;5.47;;;;;;;;;;5003433;28;20228;-86
2022/10/31 05:08:17;;;;;;;7.43;5.87;;;;;;;;;;5012921;28;20246;-86
2022/10/31 05:10:44;;;;;;;6.47;5.57;;;;;;;;;;5013550;28;20210;-86
2022/10/31 05:13:12;;;;;;;7.80;5.87;;;;;;;;;;5012823;28;20238;-88
2022/10/31 05:15:39;;;;;;;6.83;5.33;;;;;;;;;;5013535;28;20238;-88
2022/10/31 05:18:06;;;;;;;11.23;5.83;;;;;;;;;;5012707;28;20239;-88
2022/10/31 05:20:34;;;;;;;8.33;5.57;;;;;;;;;;5013420;28;20227;-88
2022/10/31 05:23:01;;;;;;;9.00;5.83;;;;;;;;;;5013037;28;20239;-87
2022/10/31 05:25:29;;;;;;;9.00;5.80;;;;;;;;;;5008304;28;20223;-87
2022/10/31 05:27:57;;;;;;;7.43;5.73;;;;;;;;;;5012619;28;20235;-87
2022/10/31 05:30:25;;;;;;;8.70;6.07;;;;;;;;;;5004971;28;20216;-87
2022/10/31 05:32:52;;;;;;;9.20;5.47;;;;;;;;;;5012858;28;20604;-89
2022/10/31 05:35:20;;;;;;;10.90;5.97;;;;;;;;;;5013333;28;20644;-91
2022/10/31 05:37:49;;;;;;;7.07;4.70;;;;;;;;;;5012714;28;20241;-88
2022/10/31 05:40:17;;;;;;;9.47;5.33;;;;;;;;;;5011350;28;20223;-85
2022/10/31 05:42:44;;;;;;;8.17;4.80;;;;;;;;;;5008957;28;20230;-92
2022/10/31 05:45:12;;;;;;;9.13;5.30;;;;;;;;;;5032293;28;20251;-90
2022/10/31 05:47:40;;;;;;;8.13;5.10;;;;;;;;;;5013198;28;20235;-91
2022/10/31 05:50:07;;;;;;;8.63;5.93;;;;;;;;;;5013581;28;20233;-92
2022/10/31 05:52:34;;;;;;;7.70;5.27;;;;;;;;;;5013058;28;20314;-91
2022/10/31 05:55:06;;;;;;;8.60;5.93;;;;;;;;;;5012827;28;20220;-91
2022/10/31 05:57:34;;;;;;;7.80;5.00;;;;;;;;;;5013627;28;20243;-91
2022/10/31 06:00:01;;;;;;;7.37;5.57;;;;;;;;;;5013714;28;20238;-90
2022/10/31 06:02:32;;;;;;;7.40;5.07;;;;;;;;;;5009576;28;20227;-90
2022/10/31 06:04:59;;;;;;;8.77;5.50;;;;;;;;;;4993726;28;20232;-90
2022/10/31 06:07:26;;;;;;;6.37;5.20;;;;;;;;;;4993217;28;20236;-87
2022/10/31 06:09:53;;;;;;;9.27;5.50;;;;;;;;;;5008807;28;20207;-89
2022/10/31 06:12:21;;;;;;;6.30;5.70;;;;;;;;;;5012253;28;20598;-89
2022/10/31 06:14:48;;;;;;;9.63;5.40;;;;;;;;;;5012645;28;20238;-89
2022/10/31 06:17:23;;;;;;;13.37;5.03;;;;;;;;;;5012115;28;20731;-89
2022/10/31 06:19:52;;;;;;;9.10;5.40;;;;;;;;;;5013203;28;20246;-89
2022/10/31 06:22:19;;;;;;;13.10;5.20;;;;;;;;;;5012614;28;20238;-89
2022/10/31 06:24:46;;;;;;;9.40;5.37;;;;;;;;;;5012552;28;20243;-88
2022/10/31 06:27:15;;;;;;;8.97;5.63;;;;;;;;;;5011991;28;20243;-88
2022/10/31 06:29:45;;;;;;;6.47;4.73;;;;;;;;;;5012476;28;20257;-89
2022/10/31 06:32:12;;;;;;;7.20;5.50;;;;;;;;;;5012052;28;20656;-88
2022/10/31 06:34:40;;;;;;;8.03;5.57;;;;;;;;;;5012673;28;20235;-89
2022/10/31 06:37:07;;;;;;;14.90;5.73;;;;;;;;;;5012365;28;20235;-90
2022/10/31 06:39:34;;;;;;;10.73;7.27;;;;;;;;;;5012367;28;20195;-87
2022/10/31 06:42:01;;;;;;;9.57;4.83;;;;;;;;;;5011595;28;20235;-87
2022/10/31 06:44:29;;;;;;;8.77;4.83;;;;;;;;;;5012226;28;20227;-86
2022/10/31 06:46:58;;;;;;;5.13;4.60;;;;;;;;;;5011382;28;20235;-86
2022/10/31 06:49:25;;;;;;;5.73;5.13;;;;;;;;;;4992256;28;20208;-85
2022/10/31 06:51:52;;;;;;;9.83;5.37;;;;;;;;;;5007180;28;20722;-85
2022/10/31 06:54:19;;;;;;;8.00;5.17;;;;;;;;;;5002177;28;20223;-86
2022/10/31 06:56:47;;;;;;;9.43;5.17;;;;;;;;;;5006659;28;20238;-86
2022/10/31 06:59:15;;;;;;;10.97;4.83;;;;;;;;;;5017575;28;20192;-86
2022/10/31 07:01:42;;;;;;;11.03;5.23;;;;;;;;;;5010173;28;20243;-86
2022/10/31 07:04:11;;;;;;;10.73;5.93;;;;;;;;;;5010390;28;20216;-86
2022/10/31 07:06:38;;;;;;;7.83;5.43;;;;;;;;;;5015767;28;20235;-86
2022/10/31 07:09:05;;;;;;;9.50;5.43;;;;;;;;;;5015664;28;20191;-86
2022/10/31 07:11:32;;;;;;;13.47;6.20;;;;;;;;;;5015688;28;20254;-86
2022/10/31 07:13:59;;;;;;;12.40;7.30;;;;;;;;;;5015927;28;20206;-86
2022/10/31 07:16:26;;;;;;;10.30;6.73;;;;;;;;;;5015800;28;20212;-86
2022/10/31 07:18:54;;;;;;;12.80;7.53;;;;;;;;;;5018834;28;20211;-96
2022/10/31 07:21:22;;;;;;;13.10;7.33;;;;;;;;;;5020524;28;20302;-95
2022/10/31 07:23:51;;;;;;;12.17;7.33;;;;;;;;;;5023018;28;20213;-96
2022/10/31 07:26:18;;;;;;;12.00;8.43;;;;;;;;;;5020349;28;20262;-96
2022/10/31 07:28:47;;;;;;;20.13;8.20;;;;;;;;;;5020089;28;20217;-96
2022/10/31 07:31:19;;;;;;;13.77;9.13;;;;;;;;;;5027824;28;20230;-96
2022/10/31 07:33:46;;;;;;;15.73;9.07;;;;;;;;;;5030076;28;20218;-96
2022/10/31 07:36:13;;;;;;;16.10;8.47;;;;;;;;;;5024469;28;20250;-96
2022/10/31 07:38:42;;;;;;;15.87;9.23;;;;;;;;;;5021652;28;20297;-96
2022/10/31 07:41:09;;;;;;;21.00;9.97;;;;;;;;;;5023314;28;20318;-96
2022/10/31 07:43:38;;;;;;;15.53;9.03;;;;;;;;;;5025221;28;20208;-96
2022/10/31 07:46:06;;;;;;;19.50;9.70;;;;;;;;;;5024790;28;20227;-93
2022/10/31 07:48:33;;;;;;;20.73;9.87;;;;;;;;;;5028417;28;20238;-96
2022/10/31 07:51:00;;;;;;;17.60;10.10;;;;;;;;;;5024622;28;20217;-96
2022/10/31 07:53:27;;;;;;;18.07;10.50;;;;;;;;;;5017798;28;20237;-95
2022/10/31 07:55:57;;;;;;;17.60;10.43;;;;;;;;;;5024730;28;20217;-96
2022/10/31 08:04:44;;;;;;;16.80;10.17;;;;;;;;;;4998133;28;20191;-96
2022/10/31 08:23:27;;;;;;;22.17;12.60;;;;;;;;;;5025951;28;20198;-94
2022/10/31 08:26:11;;;;;;;21.33;12.60;;;;;;;;;;5030026;28;20249;-96
2022/10/31 08:28:38;;;;;;;23.57;12.73;;;;;;;;;;5035364;28;20238;-93
2022/10/31 08:31:06;;;;;;;20.20;13.33;;;;;;;;;;5034592;28;20211;-94
2022/10/31 08:33:33;;;;;;;21.97;13.90;;;;;;;;;;5032588;28;20233;-93
2022/10/31 08:36:00;;;;;;;23.00;14.53;;;;;;;;;;5032810;28;20675;-94
2022/10/31 08:38:29;;;;;;;22.03;14.00;;;;;;;;;;5034884;28;20227;-93
2022/10/31 08:40:56;;;;;;;24.43;14.10;;;;;;;;;;5020959;28;20238;-93
2022/10/31 08:43:28;;;;;;;24.10;14.83;;;;;;;;;;5003161;28;20232;-93
2022/10/31 08:45:55;;;;;;;25.30;15.53;;;;;;;;;;4997261;28;20314;-93
2022/10/31 08:48:22;;;;;;;22.27;15.03;;;;;;;;;;4996167;28;20300;-93
2022/10/31 08:50:50;;;;;;;21.20;15.10;;;;;;;;;;5004483;28;20220;-96
2022/10/31 08:53:19;;;;;;;20.80;14.97;;;;;;;;;;5005264;28;20299;-95
2022/10/31 08:55:48;;;;;;;21.30;16.17;;;;;;;;;;5002766;28;20236;-95
2022/10/31 08:58:16;;;;;;;29.77;14.90;;;;;;;;;;4987252;28;20323;-96
2022/10/31 09:00:50;;;;;;;22.17;13.70;;;;;;;;;;5000097;28;20239;-95
2022/10/31 09:03:24;;;;;;;19.60;13.13;;;;;;;;;;5007940;28;20254;-95
2022/10/31 09:05:53;;;;;;;18.60;13.40;;;;;;;;;;5010305;28;20243;-95
2022/10/31 09:08:21;;;;;;;19.07;15.03;;;;;;;;;;5011548;28;20259;-96
2022/10/31 09:11:18;;;;;;;20.07;15.00;;;;;;;;;;5013777;28;20208;-96
2022/10/31 09:14:04;;;;;;;20.63;13.83;;;;;;;;;;4987395;28;20714;-95
2022/10/31 09:16:32;;;;;;;19.07;13.70;;;;;;;;;;5007593;28;20650;-95
2022/10/31 09:18:59;;;;;;;16.67;12.40;;;;;;;;;;5007339;28;20201;-96
2022/10/31 09:21:27;;;;;;;15.03;11.37;;;;;;;;;;5003039;28;20228;-96
2022/10/31 09:24:00;;;;;;;14.73;10.83;;;;;;;;;;5004059;28;20372;-95
2022/10/31 09:26:30;;;;;;;16.93;10.70;;;;;;;;;;5004138;28;20291;-96
2022/10/31 09:29:01;;;;;;;16.93;10.20;;;;;;;;;;4989879;28;20219;-96
2022/10/31 09:31:30;;;;;;;12.40;9.43;;;;;;;;;;5006244;28;20572;-96
2022/10/31 09:33:58;;;;;;;10.70;9.37;;;;;;;;;;4987224;28;20204;-95
2022/10/31 09:36:25;;;;;;;13.17;8.20;;;;;;;;;;5000191;28;20280;-96
2022/10/31 09:38:53;;;;;;;9.10;8.00;;;;;;;;;;5001069;28;20232;-96
2022/10/31 09:41:24;;;;;;;10.17;7.57;;;;;;;;;;4997881;28;20224;-95
2022/10/31 09:43:55;;;;;;;10.87;7.97;;;;;;;;;;4999088;28;20214;-95
2022/10/31 09:46:26;;;;;;;14.97;8.90;;;;;;;;;;4998646;28;20231;-95
2022/10/31 09:49:06;;;;;;;12.97;8.17;;;;;;;;;;4997903;28;20224;-95
2022/10/31 09:51:40;;;;;;;12.60;7.63;;;;;;;;;;4997013;28;20332;-95
2022/10/31 09:54:16;;;;;;;12.20;7.90;;;;;;;;;;4997187;28;20214;-95
2022/10/31 09:56:44;;;;;;;9.20;7.23;;;;;;;;;;4996826;28;20302;-95
2022/10/31 09:59:14;;;;;;;8.53;7.23;;;;;;;;;;4997358;28;20216;-95
2022/10/31 10:01:44;;;;;;;7.07;6.30;;;;;;;;;;4996123;28;20676;-94
2022/10/31 10:04:18;;;;;;;7.63;6.90;;;;;;;;;;4996283;28;20215;-95
2022/10/31 10:07:04;;;;;;;8.07;6.63;;;;;;;;;;4996343;28;20240;-96
2022/10/31 10:09:31;;;;;;;10.37;7.10;;;;;;;;;;4996941;28;20204;-96
2022/10/31 10:12:08;;;;;;;9.50;6.80;;;;;;;;;;4997135;28;20241;-95
2022/10/31 10:14:41;;;;;;;17.77;7.33;;;;;;;;;;5002389;28;20278;-96
2022/10/31 10:17:17;;;;;;;8.60;5.93;;;;;;;;;;5017040;28;20238;-96
2022/10/31 10:19:56;;;;;;;16.53;7.00;;;;;;;;;;5017407;28;20270;-95
2022/10/31 10:22:26;;;;;;;8.87;5.90;;;;;;;;;;4997254;28;20335;-95
2022/10/31 10:25:01;;;;;;;7.37;6.07;;;;;;;;;;4997198;28;20239;-95
2022/10/31 10:27:32;;;;;;;9.80;6.50;;;;;;;;;;4996295;28;20664;-95
2022/10/31 10:30:02;;;;;;;9.80;6.03;;;;;;;;;;4996332;28;20212;-95
2022/10/31 10:32:43;;;;;;;12.40;6.80;;;;;;;;;;4995827;28;20243;-95
2022/10/31 10:35:16;;;;;;;10.80;6.77;;;;;;;;;;4996166;28;20215;-95
2022/10/31 10:37:45;;;;;;;9.10;6.10;;;;;;;;;;4995765;28;20236;-95
2022/10/31 10:40:16;;;;;;;11.30;6.57;;;;;;;;;;4995598;28;20684;-95
2022/10/31 10:48:15;;;;;;;11.00;6.13;;;;;;;;;;4995152;28;20242;-95
2022/10/31 10:50:49;;;;;;;11.93;5.80;;;;;;;;;;4995059;28;20214;-95
2022/10/31 10:53:35;;;;;;;7.47;5.30;;;;;;;;;;4994982;28;20242;-95
2022/10/31 10:56:06;;;;;;;8.87;6.20;;;;;;;;;;4994994;28;20231;-95
2022/10/31 10:58:33;;;;;;;7.70;5.20;;;;;;;;;;4994714;28;20240;-94
2022/10/31 11:01:01;;;;;;;9.30;5.93;;;;;;;;;;4995779;28;20204;-94
2022/10/31 11:03:30;;;;;;;9.43;5.40;;;;;;;;;;4994495;28;20240;-94
2022/10/31 11:06:00;;;;;;;11.53;6.30;;;;;;;;;;4994920;28;20238;-93
2022/10/31 11:08:29;;;;;;;7.50;5.27;;;;;;;;;;4994818;28;20244;-94
2022/10/31 11:11:00;;;;;;;10.70;5.77;;;;;;;;;;4995288;28;20216;-94
2022/10/31 11:13:27;;;;;;;9.87;5.80;;;;;;;;;;4994341;28;20243;-93
2022/10/31 11:15:57;;;;;;;6.77;5.27;;;;;;;;;;4994790;28;20228;-94
2022/10/31 11:18:26;;;;;;;7.27;5.43;;;;;;;;;;4993824;28;20620;-93
2022/10/31 11:20:54;;;;;;;10.73;5.53;;;;;;;;;;4994706;28;20250;-94
2022/10/31 11:23:40;;;;;;;10.90;5.80;;;;;;;;;;4993721;28;20731;-94
2022/10/31 11:26:08;;;;;;;11.70;5.00;;;;;;;;;;4994117;28;20232;-94
2022/10/31 11:28:35;;;;;;;7.30;5.07;;;;;;;;;;5013860;28;20219;-93
2022/10/31 11:31:06;;;;;;;10.97;5.10;;;;;;;;;;5014928;28;20212;-94
2022/10/31 11:33:34;;;;;;;6.47;4.93;;;;;;;;;;5014082;28;20242;-93
2022/10/31 11:36:02;;;;;;;6.23;4.70;;;;;;;;;;5013716;28;20235;-94
2022/10/31 11:38:34;;;;;;;7.17;4.50;;;;;;;;;;5012711;28;20235;-93
2022/10/31 11:41:07;;;;;;;8.03;5.00;;;;;;;;;;5013632;28;20223;-94
2022/10/31 11:43:34;;;;;;;6.33;4.83;;;;;;;;;;5013153;28;20220;-93
2022/10/31 11:46:09;;;;;;;6.77;4.67;;;;;;;;;;5013318;28;20254;-93
2022/10/31 11:48:36;;;;;;;6.30;4.50;;;;;;;;;;5012729;28;20572;-94
2022/10/31 11:51:04;;;;;;;9.47;4.80;;;;;;;;;;5014003;28;20212;-94
2022/10/31 11:53:32;;;;;;;7.00;4.43;;;;;;;;;;5016383;28;20239;-94
2022/10/31 11:56:07;;;;;;;5.17;4.50;;;;;;;;;;5016038;28;20235;-93
2022/10/31 11:58:37;;;;;;;8.60;5.05;;;;;;;;;;5017072;28;20787;-94
2022/10/31 12:01:23;;;;;;;7.80;4.17;;;;;;;;;;5017316;28;20196;-94
2022/10/31 12:03:55;;;;;;;6.33;4.20;;;;;;;;;;5016488;28;20227;-93
2022/10/31 12:06:24;;;;;;;7.82;3.67;;;;;;;;;;5016014;28;20235;-93
2022/10/31 12:08:51;;;;;;;9.25;4.82;;;;;;;;;;5017495;28;20215;-93
2022/10/31 12:11:33;;;;;;;5.72;4.55;;;;;;;;;;5019247;28;20212;-94
2022/10/31 12:14:07;;;;;;;6.88;4.05;;;;;;;;;;5016059;28;20203;-93
2022/10/31 12:16:38;;;;;;;5.60;3.85;;;;;;;;;;5016627;28;20241;-93
2022/10/31 12:19:06;;;;;;;5.47;4.30;;;;;;;;;;5016294;28;20199;-93
2022/10/31 12:21:40;;;;;;;10.77;4.50;;;;;;;;;;5015650;28;20599;-94
2022/10/31 12:24:13;;;;;;;8.38;4.38;;;;;;;;;;5016367;28;20187;-93
2022/10/31 12:26:44;;;;;;;6.85;4.40;;;;;;;;;;5015717;28;20250;-92
2022/10/31 12:29:18;;;;;;;7.78;4.53;;;;;;;;;;5016199;28;20202;-94
2022/10/31 12:31:52;;;;;;;6.40;4.10;;;;;;;;;;5016068;28;20231;-91
2022/10/31 12:34:23;;;;;;;5.82;4.13;;;;;;;;;;5016413;28;20207;-93
2022/10/31 12:36:55;;;;;;;5.97;3.97;;;;;;;;;;5015314;28;20245;-93
2022/10/31 12:39:26;;;;;;;8.60;4.18;;;;;;;;;;5016496;28;20207;-93
2022/10/31 12:41:55;;;;;;;9.27;3.85;;;;;;;;;;5023552;28;20798;-93
2022/10/31 12:44:37;;;;;;;6.13;4.07;;;;;;;;;;5015941;28;20232;-92
2022/10/31 12:47:19;;;;;;;6.28;3.92;;;;;;;;;;5015480;28;20231;-94
2022/10/31 12:49:51;;;;;;;5.05;3.45;;;;;;;;;;5016360;28;20726;-94
2022/10/31 12:52:33;;;;;;;8.85;4.50;;;;;;;;;;5015979;28;20688;-93
2022/10/31 12:55:10;;;;;;;6.13;3.75;;;;;;;;;;5015639;28;20231;-93
2022/10/31 12:57:40;;;;;;;5.45;4.22;;;;;;;;;;4994376;28;20235;-92
2022/10/31 13:00:14;;;;;;;9.35;3.85;;;;;;;;;;4995652;28;20199;-92
2022/10/31 13:02:44;;;;;;;5.28;4.40;;;;;;;;;;4994187;28;20711;-92
2022/10/31 13:05:15;;;;;;;5.38;3.92;;;;;;;;;;4995735;28;20740;-93
2022/10/31 13:07:45;;;;;;;6.22;3.92;;;;;;;;;;4995365;28;20249;-94
2022/10/31 13:10:17;;;;;;;4.90;3.78;;;;;;;;;;4995386;28;20211;-93
2022/10/31 13:12:45;;;;;;;6.18;4.32;;;;;;;;;;4994394;28;20232;-91
2022/10/31 13:15:17;;;;;;;11.20;4.22;;;;;;;;;;4994775;28;20227;-93
2022/10/31 13:17:47;;;;;;;9.55;4.10;;;;;;;;;;5019706;28;20226;-86
2022/10/31 13:20:21;;;;;;;7.13;4.30;;;;;;;;;;5032579;28;20214;-86
2022/10/31 13:22:49;;;;;;;6.55;4.15;;;;;;;;;;5020380;28;20234;-85
2022/10/31 13:25:18;;;;;;;7.80;4.95;;;;;;;;;;5012825;28;20223;-85
2022/10/31 13:27:48;;;;;;;5.75;4.13;;;;;;;;;;5012245;28;20242;-85
2022/10/31 13:30:16;;;;;;;7.28;4.25;;;;;;;;;;5013085;28;20204;-85
2022/10/31 13:32:46;;;;;;;8.07;4.20;;;;;;;;;;5012505;28;20612;-86
2022/10/31 13:35:17;;;;;;;6.30;4.35;;;;;;;;;;5019528;28;20223;-85
2022/10/31 13:37:48;;;;;;;5.85;4.05;;;;;;;;;;5012988;28;20246;-85
2022/10/31 13:40:19;;;;;;;6.95;4.13;;;;;;;;;;5013752;28;20262;-85
2022/10/31 13:42:52;;;;;;;5.57;3.80;;;;;;;;;;5012267;28;20227;-86
2022/10/31 13:45:21;;;;;;;7.47;4.07;;;;;;;;;;5012739;28;20227;-86
2022/10/31 13:47:56;;;;;;;4.57;3.95;;;;;;;;;;5011849;28;20819;-86
2022/10/31 13:50:26;;;;;;;7.63;3.70;;;;;;;;;;5012947;28;20203;-86
2022/10/31 13:52:53;;;;;;;6.65;4.47;;;;;;;;;;5012313;28;20238;-86
2022/10/31 13:55:39;;;;;;;6.25;3.83;;;;;;;;;;5012390;28;20231;-85
2022/10/31 13:58:06;;;;;;;9.55;4.07;;;;;;;;;;5011852;28;20239;-85
2022/10/31 14:00:34;;;;;;;6.65;4.15;;;;;;;;;;5003138;28;20188;-85
2022/10/31 14:03:02;;;;;;;7.43;3.88;;;;;;;;;;5011611;28;20321;-85
2022/10/31 14:05:31;;;;;;;9.23;4.47;;;;;;;;;;5012817;28;20242;-86
2022/10/31 14:07:59;;;;;;;10.10;4.22;;;;;;;;;;5012173;28;20246;-85
2022/10/31 14:10:28;;;;;;;5.65;3.95;;;;;;;;;;5012246;28;20279;-85
2022/10/31 14:12:56;;;;;;;5.75;3.65;;;;;;;;;;5011677;28;20245;-85
2022/10/31 14:15:25;;;;;;;7.95;4.93;;;;;;;;;;5011358;28;20230;-85
2022/10/31 14:17:54;;;;;;;6.55;4.00;;;;;;;;;;5011098;28;21068;-85
2022/10/31 14:20:36;;;;;;;8.75;3.83;;;;;;;;;;5012036;28;20215;-85
2022/10/31 14:23:13;;;;;;;5.30;3.92;;;;;;;;;;5011457;28;20239;-85
2022/10/31 14:25:40;;;;;;;6.78;3.92;;;;;;;;;;5012297;28;20621;-85
2022/10/31 14:28:20;;;;;;;7.90;3.95;;;;;;;;;;5011287;28;20238;-85
2022/10/31 14:30:52;;;;;;;6.75;3.95;;;;;;;;;;5012279;28;20196;-86
2022/10/31 14:33:20;;;;;;;3.97;3.53;;;;;;;;;;5011041;28;20219;-85
2022/10/31 14:35:53;;;;;;;7.20;3.78;;;;;;;;;;5011921;28;20251;-85
2022/10/31 14:38:27;;;;;;;6.95;4.38;;;;;;;;;;5011508;28;20239;-85
2022/10/31 14:41:03;;;;;;;7.38;3.72;;;;;;;;;;5011705;28;20195;-85
2022/10/31 14:43:39;;;;;;;6.97;3.42;;;;;;;;;;5011226;28;20725;-85
2022/10/31 14:46:10;;;;;;;6.32;3.85;;;;;;;;;;5011494;28;20223;-84
2022/10/31 14:48:52;;;;;;;9.75;4.13;;;;;;;;;;5012350;28;20215;-85
2022/10/31 14:51:22;;;;;;;7.38;3.50;;;;;;;;;;5018671;28;20245;-85
2022/10/31 14:53:51;;;;;;;6.05;3.90;;;;;;;;;;5012273;28;20199;-87
2022/10/31 14:56:21;;;;;;;7.22;4.63;;;;;;;;;;5013056;28;20766;-87
2022/10/31 14:58:48;;;;;;;5.85;3.65;;;;;;;;;;5011408;28;20582;-85
2022/10/31 15:01:20;;;;;;;6.00;4.10;;;;;;;;;;5010407;28;20219;-86
2022/10/31 15:03:48;;;;;;;6.10;3.72;;;;;;;;;;5011989;28;20223;-87
2022/10/31 15:06:17;;;;;;;6.65;4.65;;;;;;;;;;5011674;28;20239;-88
2022/10/31 15:08:47;;;;;;;8.88;4.60;;;;;;;;;;5011543;28;20726;-89
2022/10/31 15:11:15;;;;;;;6.82;3.72;;;;;;;;;;5010865;28;20234;-89
2022/10/31 15:13:43;;;;;;;7.70;4.30;;;;;;;;;;5011901;28;20200;-89
2022/10/31 15:16:12;;;;;;;8.85;4.47;;;;;;;;;;5011462;28;20297;-87
2022/10/31 15:18:41;;;;;;;7.45;4.57;;;;;;;;;;4997429;28;20209;-88
2022/10/31 15:21:09;;;;;;;7.43;4.55;;;;;;;;;;5011485;28;20223;-88